createdAt,value
2022-11-21T00:00:00.000Z,5.86
2022-11-21T00:15:00.000Z,5.81
2022-11-21T00:30:00.000Z,5.8
2022-11-21T00:45:00.000Z,5.77
2022-11-21T01:00:00.000Z,5.79
2022-11-21T01:15:00.000Z,5.72
2022-11-21T01:30:00.000Z,5.57
2022-11-21T01:45:00.000Z,5.58
2022-11-21T02:00:00.000Z,5.68
2022-11-21T02:15:00.000Z,5.69
2022-11-21T02:30:00.000Z,5.72
2022-11-21T02:45:00.000Z,5.77
2022-11-21T03:00:00.000Z,5.65
2022-11-21T03:15:00.000Z,5.62
2022-11-21T03:30:00.000Z,5.59
2022-11-21T03:45:00.000Z,5.58
2022-11-21T04:00:00.000Z,5.6
2022-11-21T04:15:00.000Z,5.65
2022-11-21T04:30:00.000Z,5.37
2022-11-21T04:45:00.000Z,5.17
2022-11-21T05:00:00.000Z,5.19
2022-11-21T05:15:00.000Z,4.96
2022-11-21T05:30:00.000Z,4.84
2022-11-21T05:45:00.000Z,5.05
2022-11-21T06:00:00.000Z,5.19
2022-11-21T06:15:00.000Z,5.47
2022-11-21T06:30:00.000Z,5.76
2022-11-21T06:45:00.000Z,5.97
2022-11-21T07:00:00.000Z,5.87
2022-11-21T07:15:00.000Z,5.95
2022-11-21T07:30:00.000Z,6.24
2022-11-21T07:45:00.000Z,6.4
2022-11-21T08:00:00.000Z,6.37
2022-11-21T08:15:00.000Z,6.86
2022-11-21T08:30:00.000Z,7
2022-11-21T08:45:00.000Z,7.08
2022-11-21T09:00:00.000Z,7.14
2022-11-21T09:15:00.000Z,7.28
2022-11-21T09:30:00.000Z,7.71
2022-11-21T09:45:00.000Z,8.14
2022-11-21T10:00:00.000Z,8.45
2022-11-21T10:15:00.000Z,8.81
2022-11-21T10:30:00.000Z,9.02
2022-11-21T10:45:00.000Z,9.47
2022-11-21T11:00:00.000Z,10.89
2022-11-21T11:15:00.000Z,10.47
2022-11-21T11:30:00.000Z,10.68
2022-11-21T11:45:00.000Z,9.97
2022-11-21T12:00:00.000Z,9.39
2022-11-21T12:15:00.000Z,9.6
2022-11-21T12:30:00.000Z,9.97
2022-11-21T12:45:00.000Z,9.13
2022-11-21T13:00:00.000Z,8.75
2022-11-21T13:15:00.000Z,8.4
2022-11-21T13:30:00.000Z,8.34
2022-11-21T13:45:00.000Z,8.5
2022-11-21T14:00:00.000Z,8.49
2022-11-21T14:15:00.000Z,8.9
2022-11-21T14:30:00.000Z,8.63
2022-11-21T14:45:00.000Z,8.06
2022-11-21T15:00:00.000Z,7.51
2022-11-21T15:15:00.000Z,7.1
2022-11-21T15:30:00.000Z,6.71
2022-11-21T15:45:00.000Z,6.49
2022-11-21T16:00:00.000Z,6.33
2022-11-21T16:15:00.000Z,6.08
2022-11-21T16:30:00.000Z,5.79
2022-11-21T16:45:00.000Z,5.52
2022-11-21T17:00:00.000Z,5.29
2022-11-21T17:15:00.000Z,5.07
2022-11-21T17:30:00.000Z,4.74
2022-11-21T17:45:00.000Z,4.43
2022-11-21T18:00:00.000Z,4.43
2022-11-21T18:15:00.000Z,4.37
2022-11-21T18:30:00.000Z,4.31
2022-11-21T18:45:00.000Z,4.08
2022-11-21T19:00:00.000Z,3.97
2022-11-21T19:15:00.000Z,3.85
2022-11-21T19:30:00.000Z,3.96
2022-11-21T19:45:00.000Z,3.69
2022-11-21T20:00:00.000Z,3.68
2022-11-21T20:15:00.000Z,3.73
2022-11-21T20:45:00.000Z,4.04
2022-11-21T21:00:00.000Z,4.08
2022-11-21T21:15:00.000Z,4.03
2022-11-21T21:30:00.000Z,4.33
2022-11-21T21:45:00.000Z,3.77
2022-11-21T22:00:00.000Z,3.73
2022-11-21T22:15:00.000Z,3.55
2022-11-21T22:30:00.000Z,3.5
2022-11-21T22:45:00.000Z,3.45
2022-11-21T23:00:00.000Z,4.01
2022-11-21T23:15:00.000Z,4.4
2022-11-21T23:30:00.000Z,4.37
2022-11-21T23:45:00.000Z,4.63
